Terminal Aerodrome Forecast
Issued by NWS Grand Forks, ND

Home | Current Version | Previous Version | Graphics & Text | Print | Product List | Glossary On
Versions: 1 2 3 4 5 6 7 8 9 10 11 12 13 14 15 16 17 18 19 20
000
FTUS43 KFGF 181720
TAFFAR
TAF
KFAR 181720Z 1818/1918 16012G20KT P6SM FEW050
     FM182200 16011KT P6SM SCT060
     FM190600 15010KT P6SM BKN015
     FM190900 15014KT P6SM OVC008
     FM191500 16022G31KT P6SM BKN025
     FM191600 15022G31KT P6SM BKN070=

USA.gov is the U.S. government's official web portal to all federal, state and local government web resources and services.